createdAt,value
2017-12-01T00:00:48.847Z,3.30
2017-12-01T00:03:16.325Z,3.30
2017-12-01T00:05:43.789Z,3.30
2017-12-01T00:08:11.362Z,3.30
2017-12-01T00:10:38.838Z,3.30
2017-12-01T00:13:07.087Z,3.30
2017-12-01T00:15:34.551Z,3.20
2017-12-01T00:18:03.525Z,3.20
2017-12-01T00:20:30.989Z,3.30
2017-12-01T00:22:58.553Z,3.30
2017-12-01T00:25:26.013Z,3.30
2017-12-01T00:27:53.576Z,3.30
2017-12-01T00:30:21.042Z,3.40
2017-12-01T00:32:49.296Z,3.40
2017-12-01T00:35:16.865Z,3.40
2017-12-01T00:37:44.420Z,3.40
2017-12-01T00:40:11.897Z,3.50
2017-12-01T00:42:40.131Z,3.50
2017-12-01T00:45:07.610Z,3.50
2017-12-01T00:47:36.598Z,3.60
2017-12-01T00:50:04.072Z,3.60
2017-12-01T00:52:32.305Z,3.40
2017-12-01T00:54:59.794Z,3.40
2017-12-01T00:57:27.262Z,3.20
2017-12-01T00:59:55.506Z,3.10
2017-12-01T01:02:22.969Z,3.10
2017-12-01T01:04:50.537Z,3.10
2017-12-01T01:07:17.996Z,3.10
2017-12-01T01:09:45.549Z,3.10
2017-12-01T01:12:13.017Z,3.20
2017-12-01T01:14:40.481Z,3.20
2017-12-01T01:17:08.746Z,3.20
2017-12-01T01:19:36.207Z,3.10
2017-12-01T01:22:03.668Z,3.20
2017-12-01T01:24:31.946Z,3.30
2017-12-01T01:27:00.187Z,3.30
2017-12-01T01:29:27.655Z,3.30
2017-12-01T01:31:55.127Z,3.40
2017-12-01T01:34:22.685Z,3.40
2017-12-01T01:36:50.242Z,3.40
2017-12-01T01:39:17.801Z,3.40
2017-12-01T01:41:45.281Z,3.50
2017-12-01T01:44:13.514Z,3.30
2017-12-01T01:46:41.021Z,3.30
2017-12-01T01:49:08.542Z,3.20
2017-12-01T01:51:36.006Z,3.20
2017-12-01T01:54:03.483Z,3.20
2017-12-01T01:56:31.713Z,3.20
2017-12-01T01:58:59.290Z,3.10
2017-12-01T02:01:26.759Z,3.10
2017-12-01T02:03:54.233Z,3.10
2017-12-01T02:06:22.462Z,3.00
2017-12-01T02:08:49.930Z,2.90
2017-12-01T02:11:17.515Z,3.00
2017-12-01T02:13:44.976Z,3.00
2017-12-01T02:16:13.209Z,3.00
2017-12-01T02:18:40.665Z,2.90
2017-12-01T02:21:08.193Z,3.00
2017-12-01T02:23:35.711Z,3.00
2017-12-01T02:26:03.949Z,3.00
2017-12-01T02:28:31.411Z,3.00
2017-12-01T02:30:58.991Z,3.10
2017-12-01T02:33:26.452Z,3.10
2017-12-01T02:35:53.914Z,3.10
2017-12-01T02:38:22.183Z,3.00
2017-12-01T02:40:50.420Z,2.90
2017-12-01T02:43:17.875Z,2.90
2017-12-01T02:45:45.470Z,3.00
2017-12-01T02:48:13.033Z,3.00
2017-12-01T02:50:40.506Z,3.00
2017-12-01T02:53:08.742Z,3.00
2017-12-01T02:55:36.213Z,3.00
2017-12-01T02:58:03.773Z,3.00
2017-12-01T03:00:31.434Z,3.00
2017-12-01T03:02:58.944Z,3.00
2017-12-01T03:05:26.397Z,3.00
2017-12-01T03:07:53.873Z,3.00
2017-12-01T03:10:21.337Z,3.00
2017-12-01T03:12:48.838Z,3.00
2017-12-01T03:15:17.066Z,3.00
2017-12-01T03:17:44.529Z,3.00
2017-12-01T03:20:11.998Z,3.10
2017-12-01T03:22:39.573Z,3.20
2017-12-01T03:25:07.146Z,3.20
2017-12-01T03:27:35.399Z,3.20
2017-12-01T03:30:02.958Z,3.10
2017-12-01T03:32:30.523Z,3.10
2017-12-01T03:34:58.084Z,3.10
2017-12-01T03:37:25.634Z,3.10
2017-12-01T03:39:53.109Z,3.10
2017-12-01T03:42:21.350Z,3.10
2017-12-01T03:44:48.879Z,3.00
2017-12-01T03:47:16.347Z,3.10
2017-12-01T03:49:43.814Z,3.20
2017-12-01T03:52:11.297Z,3.20
2017-12-01T03:54:38.766Z,3.30
2017-12-01T03:57:07.032Z,3.30
2017-12-01T03:59:34.498Z,3.20
2017-12-01T04:02:02.727Z,3.10
2017-12-01T04:04:30.198Z,3.10
2017-12-01T04:06:57.657Z,3.10
2017-12-01T04:09:25.133Z,3.10
2017-12-01T04:11:52.746Z,3.10
2017-12-01T04:14:20.294Z,3.00
2017-12-01T04:16:47.764Z,3.00
2017-12-01T04:19:15.266Z,2.90
2017-12-01T04:21:42.826Z,3.00
2017-12-01T04:24:10.390Z,3.00
2017-12-01T04:26:37.938Z,2.90
2017-12-01T04:29:05.499Z,3.00
2017-12-01T04:31:33.068Z,3.00
2017-12-01T04:34:00.621Z,3.10
2017-12-01T04:36:28.099Z,3.10
2017-12-01T04:38:56.325Z,3.00
2017-12-01T04:41:23.801Z,3.00
2017-12-01T04:43:52.083Z,2.90
2017-12-01T04:46:19.562Z,2.90
2017-12-01T04:48:47.808Z,3.00
2017-12-01T04:51:15.306Z,2.90
2017-12-01T04:53:42.830Z,3.00
2017-12-01T04:56:10.298Z,3.00
2017-12-01T04:58:38.569Z,3.10
2017-12-01T05:01:06.029Z,3.00
2017-12-01T05:03:34.302Z,3.20
2017-12-01T05:06:01.809Z,3.10
2017-12-01T05:08:29.277Z,3.20
2017-12-01T05:10:56.746Z,3.30
2017-12-01T05:13:24.221Z,3.30
2017-12-01T05:15:51.682Z,3.40
2017-12-01T05:18:19.145Z,3.30
2017-12-01T05:20:47.410Z,3.50
2017-12-01T05:23:14.873Z,3.40
2017-12-01T05:25:42.421Z,3.50
2017-12-01T05:28:11.418Z,3.50
2017-12-01T05:30:38.970Z,3.50
2017-12-01T05:33:06.522Z,3.50
2017-12-01T05:35:34.093Z,3.50
2017-12-01T05:38:01.562Z,3.40
2017-12-01T05:40:29.028Z,3.40
2017-12-01T05:42:57.285Z,3.20
2017-12-01T05:45:24.862Z,3.20
2017-12-01T05:47:53.098Z,3.20
2017-12-01T05:50:20.565Z,3.10
2017-12-01T05:52:48.038Z,3.10
2017-12-01T05:55:15.510Z,3.10
2017-12-01T05:57:43.762Z,3.00
2017-12-01T06:00:11.401Z,2.90
2017-12-01T06:02:38.856Z,2.80
2017-12-01T06:05:06.342Z,2.80
2017-12-01T06:07:33.813Z,2.80
2017-12-01T06:10:02.076Z,2.90
2017-12-01T06:12:29.550Z,2.80
2017-12-01T06:14:57.777Z,2.90
2017-12-01T06:17:25.259Z,2.80
2017-12-01T06:19:52.734Z,3.00
2017-12-01T06:22:20.992Z,3.00
2017-12-01T06:24:48.465Z,3.00
2017-12-01T06:27:16.697Z,2.80
2017-12-01T06:29:44.162Z,2.70
2017-12-01T06:32:11.630Z,2.80
2017-12-01T06:34:39.139Z,2.70
2017-12-01T06:37:06.705Z,2.70
2017-12-01T06:39:34.219Z,2.70
2017-12-01T06:42:01.775Z,2.70
2017-12-01T06:44:30.014Z,2.80
2017-12-01T06:46:57.606Z,2.80
2017-12-01T06:49:25.064Z,2.80
2017-12-01T06:51:52.626Z,2.70
2017-12-01T06:54:20.291Z,2.70
2017-12-01T06:56:47.758Z,2.80
2017-12-01T06:59:15.994Z,2.50
2017-12-01T07:01:43.466Z,2.50
2017-12-01T07:04:10.946Z,2.50
2017-12-01T07:06:39.173Z,2.40
2017-12-01T07:09:06.638Z,2.30
2017-12-01T07:11:34.114Z,2.40
2017-12-01T07:14:01.598Z,2.50
2017-12-01T07:16:29.900Z,2.60
2017-12-01T07:18:57.369Z,2.50
2017-12-01T07:21:24.884Z,2.60
2017-12-01T07:23:52.575Z,2.60
2017-12-01T07:26:32.728Z,2.60
2017-12-01T07:29:00.255Z,2.60
2017-12-01T07:31:28.563Z,2.70
2017-12-01T07:33:56.166Z,2.60
2017-12-01T07:36:23.638Z,2.70
2017-12-01T07:38:51.161Z,2.80
2017-12-01T07:41:18.838Z,3.00
2017-12-01T07:43:47.181Z,3.20
2017-12-01T07:46:14.670Z,3.30
2017-12-01T07:48:42.129Z,3.20
2017-12-01T07:51:09.601Z,3.20
2017-12-01T07:53:37.063Z,3.10
2017-12-01T07:56:05.294Z,3.30
2017-12-01T07:58:32.779Z,3.30
2017-12-01T08:01:00.233Z,3.50
2017-12-01T08:03:27.713Z,3.60
2017-12-01T08:05:55.950Z,3.80
2017-12-01T08:08:23.418Z,3.70
2017-12-01T08:10:50.882Z,3.80
2017-12-01T08:13:19.150Z,3.80
2017-12-01T08:15:58.586Z,3.80
2017-12-01T08:18:37.987Z,3.50
2017-12-01T08:21:05.454Z,3.30
2017-12-01T08:26:33.150Z,3.40
2017-12-01T08:29:00.626Z,3.40
2017-12-01T08:31:28.859Z,3.50
2017-12-01T08:33:56.361Z,3.50
2017-12-01T08:36:23.835Z,3.50
2017-12-01T08:38:52.089Z,3.50
2017-12-01T08:41:19.653Z,3.50
2017-12-01T08:43:47.225Z,3.50
2017-12-01T08:46:15.466Z,3.40
2017-12-01T08:48:42.921Z,3.40
2017-12-01T08:51:10.386Z,3.50
2017-12-01T08:53:37.958Z,3.50
2017-12-01T08:56:05.519Z,3.50
2017-12-01T08:58:32.998Z,3.60
2017-12-01T09:01:01.223Z,3.50
2017-12-01T09:03:28.698Z,3.50
2017-12-01T09:05:56.169Z,3.40
2017-12-01T09:08:23.649Z,3.40
2017-12-01T09:10:51.885Z,3.70
2017-12-01T09:13:19.345Z,3.70
2017-12-01T09:15:46.916Z,3.80
2017-12-01T09:18:14.385Z,3.80
2017-12-01T09:20:42.648Z,4.10
2017-12-01T09:23:10.133Z,4.10
2017-12-01T09:25:38.370Z,4.20
2017-12-01T09:28:05.932Z,4.10
2017-12-01T09:30:33.427Z,4.20
2017-12-01T09:33:00.902Z,4.20
2017-12-01T09:35:28.393Z,4.10
2017-12-01T09:37:55.970Z,4.00
2017-12-01T09:40:25.740Z,3.80
2017-12-01T09:42:53.201Z,3.90
2017-12-01T09:45:20.786Z,3.90
2017-12-01T09:47:49.058Z,4.20
2017-12-01T09:50:16.622Z,4.10
2017-12-01T09:52:44.099Z,4.20
2017-12-01T09:55:12.366Z,4.20
2017-12-01T09:57:39.842Z,4.20
2017-12-01T10:00:08.143Z,4.20
2017-12-01T10:02:35.580Z,4.10
2017-12-01T10:05:03.105Z,4.20
2017-12-01T10:07:30.587Z,4.30
2017-12-01T10:09:58.058Z,4.20
2017-12-01T10:12:25.531Z,4.30
2017-12-01T10:14:53.014Z,4.20
2017-12-01T10:17:20.486Z,4.30
2017-12-01T10:19:48.002Z,4.30
2017-12-01T10:22:15.490Z,4.40
2017-12-01T10:24:42.956Z,4.40
2017-12-01T10:27:10.534Z,4.40
2017-12-01T10:29:38.814Z,4.30
2017-12-01T10:32:07.184Z,4.40
2017-12-01T10:34:34.718Z,4.40
2017-12-01T10:37:02.185Z,4.50
2017-12-01T10:39:29.797Z,4.50
2017-12-01T10:41:57.282Z,4.50
2017-12-01T10:44:24.826Z,4.50
2017-12-01T10:46:52.323Z,4.50
2017-12-01T10:49:19.787Z,4.50
2017-12-01T10:51:47.273Z,4.50
2017-12-01T10:54:14.740Z,4.60
2017-12-01T10:56:42.264Z,4.80
2017-12-01T10:59:10.489Z,5.60
2017-12-01T11:01:37.958Z,5.60
2017-12-01T11:04:05.418Z,6.00
2017-12-01T11:06:32.893Z,6.30
2017-12-01T11:09:00.453Z,6.30
2017-12-01T11:11:27.925Z,6.20
2017-12-01T11:13:55.390Z,6.00
2017-12-01T11:16:23.625Z,6.50
2017-12-01T11:18:51.103Z,6.50
2017-12-01T11:21:19.359Z,6.30
2017-12-01T11:23:46.885Z,6.30
2017-12-01T11:26:14.354Z,6.10
2017-12-01T11:28:41.845Z,6.10
2017-12-01T11:31:09.326Z,6.00
2017-12-01T11:33:37.574Z,5.80
2017-12-01T11:36:05.137Z,5.80
2017-12-01T11:38:32.692Z,5.90
2017-12-01T11:41:00.157Z,5.80
2017-12-01T11:43:27.626Z,5.70
2017-12-01T11:45:55.876Z,5.40
2017-12-01T11:48:23.375Z,5.40
2017-12-01T11:50:51.596Z,5.40
2017-12-01T11:53:19.080Z,5.40
2017-12-01T11:55:46.550Z,5.40
2017-12-01T11:58:14.859Z,5.20
2017-12-01T12:00:57.206Z,5.20
2017-12-01T12:03:24.770Z,5.20
2017-12-01T12:05:52.235Z,5.20
2017-12-01T12:08:19.792Z,5.10
2017-12-01T12:10:47.261Z,5.00
2017-12-01T12:13:15.498Z,5.10
2017-12-01T12:15:42.957Z,5.00
2017-12-01T12:18:10.425Z,5.10
2017-12-01T12:20:37.889Z,5.10
2017-12-01T12:23:05.362Z,5.20
2017-12-01T12:25:33.606Z,5.20
2017-12-01T12:28:01.070Z,5.10
2017-12-01T12:30:28.543Z,5.30
2017-12-01T12:32:56.100Z,5.20
2017-12-01T12:35:23.570Z,5.00
2017-12-01T12:37:51.815Z,4.90
2017-12-01T12:40:19.278Z,4.90
2017-12-01T12:42:46.746Z,4.80
2017-12-01T12:45:14.213Z,4.80
2017-12-01T12:47:42.523Z,4.90
2017-12-01T12:50:09.981Z,4.80
2017-12-01T12:52:37.481Z,4.90
2017-12-01T12:55:05.042Z,5.00
2017-12-01T12:57:32.518Z,5.00
2017-12-01T13:00:00.773Z,5.10
2017-12-01T13:02:28.250Z,5.00
2017-12-01T13:04:56.483Z,5.20
2017-12-01T13:07:23.959Z,5.20
2017-12-01T13:09:51.430Z,5.10
2017-12-01T13:12:18.908Z,5.00
2017-12-01T13:14:47.144Z,4.80
2017-12-01T13:17:15.053Z,4.70
2017-12-01T13:19:42.514Z,4.70
2017-12-01T13:22:09.985Z,4.70
2017-12-01T13:24:37.446Z,4.80
2017-12-01T13:27:04.914Z,4.80
2017-12-01T13:29:32.386Z,4.80
2017-12-01T13:31:59.873Z,4.80
2017-12-01T13:34:28.098Z,4.80
2017-12-01T13:36:55.562Z,4.80
2017-12-01T13:39:23.051Z,4.80
2017-12-01T13:41:50.510Z,4.80
2017-12-01T13:44:17.972Z,4.90
2017-12-01T13:46:46.212Z,5.00
2017-12-01T13:49:13.710Z,5.00
2017-12-01T13:51:41.939Z,4.80
2017-12-01T13:54:09.413Z,4.80
2017-12-01T13:56:36.873Z,4.80
2017-12-01T13:59:04.350Z,4.90
2017-12-01T14:01:32.581Z,5.10
2017-12-01T14:04:00.049Z,5.00
2017-12-01T14:06:27.513Z,5.10
2017-12-01T14:08:54.987Z,5.10
2017-12-01T14:11:22.492Z,5.20
2017-12-01T14:13:49.958Z,5.20
2017-12-01T14:16:17.432Z,5.20
2017-12-01T14:18:44.897Z,5.30
2017-12-01T14:21:12.372Z,5.30
2017-12-01T14:23:40.994Z,5.10
2017-12-01T14:26:08.466Z,5.10
2017-12-01T14:28:35.930Z,5.10
2017-12-01T14:31:03.427Z,5.20
2017-12-01T14:33:30.895Z,5.20
2017-12-01T14:35:59.158Z,5.20
2017-12-01T14:38:26.622Z,5.10
2017-12-01T14:40:54.893Z,5.00
2017-12-01T14:43:22.441Z,5.00
2017-12-01T14:45:49.910Z,5.00
2017-12-01T14:48:17.365Z,5.00
2017-12-01T14:50:44.829Z,5.00
2017-12-01T14:53:13.089Z,4.80
2017-12-01T14:55:41.346Z,4.80
2017-12-01T14:58:08.814Z,4.70
2017-12-01T15:00:36.297Z,4.80
2017-12-01T15:03:04.554Z,4.90
2017-12-01T15:05:32.022Z,4.90
2017-12-01T15:08:00.341Z,5.00
2017-12-01T15:10:27.799Z,4.90
2017-12-01T15:12:55.273Z,5.00
2017-12-01T15:15:22.758Z,4.90
2017-12-01T15:17:50.229Z,4.90
2017-12-01T15:20:18.458Z,4.80
2017-12-01T15:22:45.929Z,4.80
2017-12-01T15:25:13.428Z,4.80
2017-12-01T15:27:41.667Z,4.80
2017-12-01T15:30:09.149Z,4.70
2017-12-01T15:32:36.626Z,4.70
2017-12-01T15:35:04.211Z,4.80
2017-12-01T15:37:31.674Z,4.80
2017-12-01T15:39:59.144Z,4.90
2017-12-01T15:42:26.633Z,4.80
2017-12-01T15:44:54.870Z,4.80
2017-12-01T15:47:22.338Z,4.70
2017-12-01T15:49:49.809Z,4.90
2017-12-01T15:52:17.288Z,4.80
2017-12-01T15:54:44.778Z,4.90
2017-12-01T15:57:12.250Z,4.90
2017-12-01T15:59:39.737Z,4.80
2017-12-01T16:02:07.201Z,4.80
2017-12-01T16:04:34.675Z,4.80
2017-12-01T16:07:02.897Z,4.90
2017-12-01T16:09:30.381Z,4.90
2017-12-01T16:11:57.856Z,4.90
2017-12-01T16:14:26.093Z,4.80
2017-12-01T16:16:53.558Z,4.80
2017-12-01T16:19:21.021Z,4.80
2017-12-01T16:21:48.482Z,4.80
2017-12-01T16:24:15.958Z,4.70
2017-12-01T16:26:43.417Z,4.80
2017-12-01T16:29:11.701Z,4.70
2017-12-01T16:31:39.126Z,4.70
2017-12-01T16:34:06.597Z,4.80
2017-12-01T16:36:34.070Z,4.80
2017-12-01T16:39:02.323Z,4.80
2017-12-01T16:41:29.795Z,4.70
2017-12-01T16:43:58.062Z,4.80
2017-12-01T16:46:25.619Z,4.70
2017-12-01T16:48:53.090Z,4.70
2017-12-01T16:51:21.821Z,4.60
2017-12-01T16:53:49.298Z,4.60
2017-12-01T16:56:16.766Z,4.60
2017-12-01T16:58:44.242Z,4.50
2017-12-01T17:01:12.481Z,4.50
2017-12-01T17:03:39.982Z,4.50
2017-12-01T17:06:08.218Z,4.60
2017-12-01T17:08:35.695Z,4.50
2017-12-01T17:11:03.176Z,4.60
2017-12-01T17:13:31.887Z,4.50
2017-12-01T17:15:59.755Z,4.50
2017-12-01T17:18:27.362Z,4.50
2017-12-01T17:20:54.829Z,4.40
2017-12-01T17:23:23.091Z,4.30
2017-12-01T17:25:50.557Z,4.30
2017-12-01T17:28:18.789Z,4.20
2017-12-01T17:30:46.252Z,4.10
2017-12-01T17:33:13.753Z,4.20
2017-12-01T17:35:41.977Z,4.30
2017-12-01T17:38:09.446Z,4.20
2017-12-01T17:40:36.930Z,4.30
2017-12-01T17:43:04.414Z,4.30
2017-12-01T17:45:31.882Z,4.30
2017-12-01T17:47:59.353Z,4.30
2017-12-01T17:50:26.904Z,4.30
2017-12-01T17:52:54.364Z,4.30
2017-12-01T17:55:21.835Z,4.40
2017-12-01T17:57:49.294Z,4.40
2017-12-01T18:00:16.771Z,4.40
2017-12-01T18:02:44.241Z,4.30
2017-12-01T18:05:11.716Z,4.20
2017-12-01T18:07:39.955Z,4.20
2017-12-01T18:10:07.447Z,4.10
2017-12-01T18:12:35.701Z,4.20
2017-12-01T18:15:03.313Z,4.10
2017-12-01T18:17:30.781Z,4.20
2017-12-01T18:19:58.246Z,4.20
2017-12-01T18:22:25.726Z,4.10
2017-12-01T18:24:53.195Z,4.00
2017-12-01T18:27:20.754Z,3.90
2017-12-01T18:29:48.214Z,3.90
2017-12-01T18:32:16.470Z,4.00
2017-12-01T18:34:43.937Z,3.90
2017-12-01T18:37:12.170Z,4.00
2017-12-01T18:39:39.651Z,3.90
2017-12-01T18:42:07.130Z,4.00
2017-12-01T18:44:34.645Z,4.00
2017-12-01T18:47:02.138Z,4.10
2017-12-01T18:49:29.595Z,4.10
2017-12-01T18:51:57.061Z,4.10
2017-12-01T18:54:24.614Z,4.10
2017-12-01T18:56:52.118Z,4.10
2017-12-01T18:59:19.582Z,4.10
2017-12-01T19:01:47.048Z,4.20
2017-12-01T19:04:14.513Z,4.20
2017-12-01T19:06:42.050Z,4.20
2017-12-01T19:09:10.418Z,4.30
2017-12-01T19:11:37.885Z,4.30
2017-12-01T19:14:05.359Z,4.30
2017-12-01T19:16:32.851Z,4.40
2017-12-01T19:19:00.352Z,4.40
2017-12-01T19:21:27.809Z,4.40
2017-12-01T19:23:55.328Z,4.40
2017-12-01T19:26:23.561Z,4.30
2017-12-01T19:28:51.053Z,4.30
2017-12-01T19:31:18.612Z,4.30
2017-12-01T19:33:46.080Z,4.30
2017-12-01T19:36:14.319Z,4.30
2017-12-01T19:38:41.785Z,4.30
2017-12-01T19:41:09.301Z,4.40
2017-12-01T19:43:36.786Z,4.40
2017-12-01T19:46:04.262Z,4.40
2017-12-01T19:48:31.731Z,4.20
2017-12-01T19:50:59.278Z,4.30
2017-12-01T19:53:27.630Z,4.30
2017-12-01T19:55:55.129Z,4.30
2017-12-01T19:58:22.694Z,4.30
2017-12-01T20:00:51.006Z,4.40
2017-12-01T20:03:18.470Z,4.30
2017-12-01T20:05:46.024Z,4.40
2017-12-01T20:08:13.505Z,4.40
2017-12-01T20:10:40.968Z,4.50
2017-12-01T20:13:08.449Z,4.50
2017-12-01T20:15:35.915Z,4.50
2017-12-01T20:18:04.225Z,4.20
2017-12-01T20:20:31.694Z,4.10
2017-12-01T20:22:59.170Z,4.10
2017-12-01T20:25:26.653Z,4.00
2017-12-01T20:27:54.128Z,4.10
2017-12-01T20:30:22.357Z,4.20
2017-12-01T20:32:49.929Z,4.20
2017-12-01T20:35:17.385Z,4.20
2017-12-01T20:37:44.854Z,4.20
2017-12-01T20:40:12.321Z,4.20
2017-12-01T20:42:39.914Z,4.30
2017-12-01T20:45:07.380Z,4.30
2017-12-01T20:47:34.848Z,4.30
2017-12-01T20:50:02.342Z,4.30
2017-12-01T20:52:30.575Z,4.10
2017-12-01T20:54:58.054Z,4.10
2017-12-01T20:57:25.575Z,4.10
2017-12-01T20:59:53.236Z,4.20
2017-12-01T21:02:20.742Z,4.30
2017-12-01T21:04:48.352Z,4.30
2017-12-01T21:07:15.912Z,4.30
2017-12-01T21:09:43.593Z,4.40
2017-12-01T21:12:11.236Z,4.50
2017-12-01T21:14:38.718Z,4.50
2017-12-01T21:17:06.389Z,4.50
2017-12-01T21:19:33.849Z,4.50
2017-12-01T21:22:01.319Z,4.60
2017-12-01T21:24:28.777Z,4.50
2017-12-01T21:26:56.249Z,4.40
2017-12-01T21:29:24.745Z,4.50
2017-12-01T21:31:52.270Z,4.50
2017-12-01T21:34:19.740Z,4.60
2017-12-01T21:36:47.986Z,4.50
2017-12-01T21:39:15.559Z,4.40
2017-12-01T21:41:43.810Z,4.30
2017-12-01T21:44:11.292Z,4.20
2017-12-01T21:46:38.758Z,4.30
2017-12-01T21:49:07.192Z,4.20
2017-12-01T21:51:34.691Z,4.10
2017-12-01T21:54:02.398Z,4.20
2017-12-01T21:56:29.866Z,4.20
2017-12-01T21:58:57.721Z,4.30
2017-12-01T22:01:25.204Z,4.40
2017-12-01T22:03:53.451Z,4.40
2017-12-01T22:06:20.979Z,4.40
2017-12-01T22:08:49.216Z,4.40
2017-12-01T22:11:17.493Z,4.40
2017-12-01T22:13:44.986Z,4.30
2017-12-01T22:16:13.215Z,4.40
2017-12-01T22:18:40.683Z,4.30
2017-12-01T22:21:08.206Z,4.50
2017-12-01T22:23:35.682Z,4.50
2017-12-01T22:26:03.204Z,4.40
2017-12-01T22:28:30.642Z,4.40
2017-12-01T22:30:58.875Z,4.30
2017-12-01T22:33:26.341Z,4.30
2017-12-01T22:35:53.821Z,4.40
2017-12-01T22:38:21.322Z,4.40
2017-12-01T22:40:48.781Z,4.50
2017-12-01T22:43:16.273Z,4.60
2017-12-01T22:45:43.734Z,4.50
2017-12-01T22:48:11.202Z,4.40
2017-12-01T22:50:38.757Z,4.40
2017-12-01T22:53:06.230Z,4.40
2017-12-01T22:55:34.484Z,4.40
2017-12-01T22:58:01.947Z,4.30
2017-12-01T23:00:29.469Z,4.40
2017-12-01T23:02:56.964Z,4.50
2017-12-01T23:05:24.521Z,4.50
2017-12-01T23:07:51.993Z,4.40
2017-12-01T23:10:20.232Z,4.40
2017-12-01T23:12:47.691Z,4.30
2017-12-01T23:15:15.219Z,4.40
2017-12-01T23:17:42.813Z,4.50
2017-12-01T23:20:10.289Z,4.40
2017-12-01T23:22:37.771Z,4.40
2017-12-01T23:25:06.000Z,4.30
2017-12-01T23:27:33.574Z,4.30
2017-12-01T23:30:01.036Z,4.40
2017-12-01T23:32:28.594Z,4.30
2017-12-01T23:34:56.059Z,4.30
2017-12-01T23:37:24.294Z,4.40
2017-12-01T23:39:51.759Z,4.30
2017-12-01T23:42:19.235Z,4.50
2017-12-01T23:44:46.695Z,4.50
2017-12-01T23:47:14.259Z,4.50
2017-12-01T23:49:42.536Z,4.50
2017-12-01T23:52:10.002Z,4.50
2017-12-01T23:54:38.231Z,4.50
2017-12-01T23:57:05.712Z,4.40
2017-12-01T23:59:33.178Z,4.60
